createdAt,value
2023-05-02T00:00:05.409Z,462.00
2023-05-02T00:01:05.341Z,462.00
2023-05-02T00:02:05.373Z,459.00
2023-05-02T00:03:05.491Z,458.00
2023-05-02T00:04:05.562Z,457.00
2023-05-02T00:05:05.465Z,460.00
2023-05-02T00:06:05.550Z,462.00
2023-05-02T00:07:05.534Z,462.00
2023-05-02T00:08:05.637Z,461.00
2023-05-02T00:09:05.645Z,459.00
2023-05-02T00:10:05.674Z,457.00
2023-05-02T00:11:05.766Z,457.00
2023-05-02T00:12:05.740Z,458.00
2023-05-02T00:13:05.818Z,460.00
2023-05-02T00:14:05.797Z,459.00
2023-05-02T00:15:05.860Z,457.00
2023-05-02T00:16:05.887Z,458.00
2023-05-02T00:17:06.010Z,459.00
2023-05-02T00:18:06.003Z,459.00
2023-05-02T00:19:06.228Z,460.00
2023-05-02T00:20:06.039Z,460.00
2023-05-02T00:21:06.072Z,459.00
2023-05-02T00:22:06.135Z,461.00
2023-05-02T00:23:06.170Z,463.00
2023-05-02T00:24:06.197Z,463.00
2023-05-02T00:25:06.212Z,463.00
2023-05-02T00:26:06.257Z,461.00
2023-05-02T00:27:06.371Z,460.00
2023-05-02T00:28:06.325Z,461.00
2023-05-02T00:29:06.370Z,458.00
2023-05-02T00:30:06.382Z,458.00
2023-05-02T00:31:06.425Z,458.00
2023-05-02T00:32:06.454Z,457.00
2023-05-02T00:33:06.502Z,457.00
2023-05-02T00:34:06.549Z,458.00
2023-05-02T00:35:06.587Z,456.00
2023-05-02T00:36:06.597Z,456.00
2023-05-02T00:37:06.618Z,455.00
2023-05-02T00:38:06.685Z,458.00
2023-05-02T00:39:06.705Z,458.00
2023-05-02T00:40:06.719Z,457.00
2023-05-02T00:41:06.750Z,456.00
2023-05-02T00:42:06.781Z,455.00
2023-05-02T00:43:06.825Z,457.00
2023-05-02T00:44:06.898Z,459.00
2023-05-02T00:45:07.083Z,458.00
2023-05-02T00:46:06.998Z,457.00
2023-05-02T00:47:06.967Z,455.00
2023-05-02T00:48:07.077Z,454.00
2023-05-02T00:49:07.019Z,455.00
2023-05-02T00:50:07.050Z,457.00
2023-05-02T00:51:07.143Z,457.00
2023-05-02T00:52:07.128Z,457.00
2023-05-02T00:53:07.163Z,459.00
2023-05-02T00:54:07.187Z,459.00
2023-05-02T00:55:07.221Z,459.00
2023-05-02T00:56:07.277Z,458.00
2023-05-02T00:57:07.292Z,457.00
2023-05-02T00:58:07.325Z,459.00
2023-05-02T00:59:07.369Z,459.00
2023-05-02T01:00:07.403Z,460.00
2023-05-02T01:01:07.499Z,461.00
2023-05-02T01:02:07.686Z,462.00
2023-05-02T01:03:07.770Z,459.00
2023-05-02T01:04:07.657Z,456.00
2023-05-02T01:05:07.625Z,459.00
2023-05-02T01:06:07.685Z,461.00
2023-05-02T01:07:07.646Z,461.00
2023-05-02T01:08:07.702Z,462.00
2023-05-02T01:09:07.725Z,464.00
2023-05-02T01:10:07.748Z,464.00
2023-05-02T01:11:07.825Z,465.00
2023-05-02T01:12:07.856Z,464.00
2023-05-02T01:13:07.895Z,464.00
2023-05-02T01:14:07.962Z,464.00
2023-05-02T01:15:07.952Z,463.00
2023-05-02T01:16:08.067Z,463.00
2023-05-02T01:17:08.045Z,464.00
2023-05-02T01:18:08.093Z,463.00
2023-05-02T01:19:08.256Z,463.00
2023-05-02T01:20:08.141Z,463.00
2023-05-02T01:21:08.194Z,466.00
2023-05-02T01:22:08.216Z,467.00
2023-05-02T01:23:08.278Z,464.00
2023-05-02T01:24:08.301Z,468.00
2023-05-02T01:25:08.389Z,467.00
2023-05-02T01:26:08.391Z,468.00
2023-05-02T01:27:08.418Z,468.00
2023-05-02T01:28:08.509Z,469.00
2023-05-02T01:29:08.526Z,470.00
2023-05-02T01:30:08.531Z,470.00
2023-05-02T01:31:08.629Z,471.00
2023-05-02T01:32:08.664Z,471.00
2023-05-02T01:33:08.717Z,472.00
2023-05-02T01:34:08.691Z,475.00
2023-05-02T01:35:08.736Z,472.00
2023-05-02T01:36:08.781Z,472.00
2023-05-02T01:37:08.815Z,473.00
2023-05-02T01:38:08.845Z,474.00
2023-05-02T01:39:08.881Z,471.00
2023-05-02T01:40:08.910Z,470.00
2023-05-02T01:41:08.954Z,469.00
2023-05-02T01:42:09.005Z,469.00
2023-05-02T01:43:09.026Z,469.00
2023-05-02T01:44:09.094Z,470.00
2023-05-02T01:45:09.105Z,467.00
2023-05-02T01:46:09.183Z,468.00
2023-05-02T01:47:09.391Z,467.00
2023-05-02T01:48:09.254Z,467.00
2023-05-02T01:49:09.340Z,468.00
2023-05-02T01:50:09.327Z,466.00
2023-05-02T01:51:09.349Z,468.00
2023-05-02T01:52:09.386Z,464.00
2023-05-02T01:53:09.435Z,462.00
2023-05-02T01:54:09.488Z,462.00
2023-05-02T01:55:09.520Z,461.00
2023-05-02T01:56:09.575Z,459.00
2023-05-02T01:57:09.615Z,461.00
2023-05-02T01:58:09.642Z,460.00
2023-05-02T01:59:09.684Z,460.00
2023-05-02T02:00:09.760Z,457.00
2023-05-02T02:01:09.817Z,459.00
2023-05-02T02:02:09.832Z,459.00
2023-05-02T02:03:09.873Z,460.00
2023-05-02T02:04:09.946Z,460.00
2023-05-02T02:05:09.927Z,459.00
2023-05-02T02:06:10.019Z,460.00
2023-05-02T02:07:10.014Z,462.00
2023-05-02T02:08:10.743Z,465.00
2023-05-02T02:09:10.128Z,466.00
2023-05-02T02:10:10.158Z,463.00
2023-05-02T02:11:10.188Z,464.00
2023-05-02T02:12:10.223Z,464.00
2023-05-02T02:13:10.270Z,465.00
2023-05-02T02:14:10.297Z,465.00
2023-05-02T02:15:10.330Z,470.00
2023-05-02T02:16:10.413Z,470.00
2023-05-02T02:17:10.452Z,468.00
2023-05-02T02:18:10.512Z,468.00
2023-05-02T02:19:10.514Z,466.00
2023-05-02T02:20:10.547Z,464.00
2023-05-02T02:21:10.595Z,466.00
2023-05-02T02:22:10.611Z,469.00
2023-05-02T02:23:10.667Z,469.00
2023-05-02T02:24:10.668Z,470.00
2023-05-02T02:25:10.718Z,471.00
2023-05-02T02:26:10.769Z,474.00
2023-05-02T02:27:10.822Z,476.00
2023-05-02T02:28:10.836Z,476.00
2023-05-02T02:29:10.888Z,476.00
2023-05-02T02:30:10.954Z,477.00
2023-05-02T02:31:11.092Z,476.00
2023-05-02T02:32:11.049Z,479.00
2023-05-02T02:33:11.079Z,479.00
2023-05-02T02:34:11.130Z,479.00
2023-05-02T02:35:11.163Z,478.00
2023-05-02T02:36:11.206Z,477.00
2023-05-02T02:37:11.233Z,477.00
2023-05-02T02:38:11.276Z,477.00
2023-05-02T02:39:11.346Z,473.00
2023-05-02T02:40:11.395Z,472.00
2023-05-02T02:41:11.441Z,473.00
2023-05-02T02:42:11.494Z,472.00
2023-05-02T02:43:11.565Z,470.00
2023-05-02T02:44:13.489Z,466.00
2023-05-02T02:45:11.649Z,464.00
2023-05-02T02:46:11.745Z,465.00
2023-05-02T02:47:11.712Z,466.00
2023-05-02T02:48:11.881Z,467.00
2023-05-02T02:49:11.809Z,465.00
2023-05-02T02:50:11.858Z,464.00
2023-05-02T02:51:11.891Z,465.00
2023-05-02T02:52:11.937Z,466.00
2023-05-02T02:53:12.011Z,468.00
2023-05-02T02:54:25.464Z,468.00
2023-05-02T02:55:13.030Z,469.00
2023-05-02T02:56:12.016Z,466.00
2023-05-02T02:57:12.000Z,467.00
2023-05-02T02:58:12.028Z,467.00
2023-05-02T02:59:11.998Z,466.00
2023-05-02T03:00:12.023Z,466.00
2023-05-02T03:01:12.011Z,466.00
2023-05-02T03:02:11.981Z,467.00
2023-05-02T03:03:12.078Z,465.00
2023-05-02T03:04:12.152Z,468.00
2023-05-02T03:05:11.981Z,471.00
2023-05-02T03:06:12.107Z,471.00
2023-05-02T03:07:12.005Z,469.00
2023-05-02T03:08:12.116Z,472.00
2023-05-02T03:09:12.107Z,469.00
2023-05-02T03:10:12.152Z,469.00
2023-05-02T03:11:12.211Z,468.00
2023-05-02T03:12:12.270Z,466.00
2023-05-02T03:13:12.323Z,464.00
2023-05-02T03:14:12.373Z,465.00
2023-05-02T03:15:12.376Z,463.00
2023-05-02T03:16:12.506Z,462.00
2023-05-02T03:17:12.467Z,465.00
2023-05-02T03:18:12.571Z,465.00
2023-05-02T03:19:12.560Z,467.00
2023-05-02T03:20:12.609Z,467.00
2023-05-02T03:21:12.638Z,468.00
2023-05-02T03:22:12.697Z,468.00
2023-05-02T03:23:12.723Z,468.00
2023-05-02T03:24:12.810Z,470.00
2023-05-02T03:25:12.844Z,471.00
2023-05-02T03:26:12.880Z,469.00
2023-05-02T03:27:12.944Z,469.00
2023-05-02T03:28:12.985Z,468.00
2023-05-02T03:29:13.038Z,469.00
2023-05-02T03:30:13.039Z,465.00
2023-05-02T03:31:13.166Z,464.00
2023-05-02T03:32:13.369Z,464.00
2023-05-02T03:33:13.248Z,465.00
2023-05-02T03:34:13.219Z,463.00
2023-05-02T03:35:13.267Z,464.00
2023-05-02T03:36:13.302Z,467.00
2023-05-02T03:37:13.376Z,471.00
2023-05-02T03:38:13.478Z,474.00
2023-05-02T03:39:13.478Z,475.00
2023-05-02T03:40:13.571Z,474.00
2023-05-02T03:41:13.535Z,471.00
2023-05-02T03:42:13.598Z,466.00
2023-05-02T03:43:13.641Z,465.00
2023-05-02T03:44:13.695Z,464.00
2023-05-02T03:45:13.699Z,463.00
2023-05-02T03:46:13.745Z,463.00
2023-05-02T03:47:13.911Z,463.00
2023-05-02T03:48:13.919Z,466.00
2023-05-02T03:49:13.908Z,467.00
2023-05-02T03:50:13.913Z,467.00
2023-05-02T03:51:13.961Z,466.00
2023-05-02T03:52:14.000Z,466.00
2023-05-02T03:53:14.036Z,466.00
2023-05-02T03:54:14.092Z,466.00
2023-05-02T03:55:14.147Z,464.00
2023-05-02T03:56:14.179Z,463.00
2023-05-02T03:57:14.233Z,466.00
2023-05-02T03:58:14.319Z,466.00
2023-05-02T03:59:14.342Z,466.00
2023-05-02T04:00:14.355Z,466.00
2023-05-02T04:01:14.398Z,466.00
2023-05-02T04:02:14.502Z,465.00
2023-05-02T04:03:14.496Z,463.00
2023-05-02T04:04:14.556Z,465.00
2023-05-02T04:05:14.630Z,468.00
2023-05-02T04:06:14.648Z,467.00
2023-05-02T04:07:14.640Z,468.00
2023-05-02T04:08:14.704Z,469.00
2023-05-02T04:09:14.744Z,469.00
2023-05-02T04:10:14.777Z,470.00
2023-05-02T04:11:14.892Z,468.00
2023-05-02T04:12:14.899Z,468.00
2023-05-02T04:13:14.910Z,466.00
2023-05-02T04:14:14.954Z,466.00
2023-05-02T04:15:14.993Z,467.00
2023-05-02T04:16:15.084Z,467.00
2023-05-02T04:17:15.148Z,466.00
2023-05-02T04:18:15.189Z,465.00
2023-05-02T04:19:15.192Z,462.00
2023-05-02T04:20:15.203Z,459.00
2023-05-02T04:21:15.277Z,462.00
2023-05-02T04:22:15.314Z,464.00
2023-05-02T04:23:15.352Z,463.00
2023-05-02T04:24:15.386Z,464.00
2023-05-02T04:25:15.422Z,465.00
2023-05-02T04:26:15.452Z,463.00
2023-05-02T04:27:15.608Z,460.00
2023-05-02T04:28:15.560Z,461.00
2023-05-02T04:29:15.590Z,461.00
2023-05-02T04:30:15.665Z,465.00
2023-05-02T04:31:15.743Z,465.00
2023-05-02T04:32:15.736Z,465.00
2023-05-02T04:33:15.794Z,467.00
2023-05-02T04:34:15.804Z,467.00
2023-05-02T04:35:15.834Z,468.00
2023-05-02T04:36:15.896Z,468.00
2023-05-02T04:37:16.226Z,467.00
2023-05-02T04:38:16.018Z,466.00
2023-05-02T04:39:16.003Z,467.00
2023-05-02T04:40:16.029Z,467.00
2023-05-02T04:41:16.096Z,466.00
2023-05-02T04:42:16.122Z,466.00
2023-05-02T04:43:16.172Z,465.00
2023-05-02T04:44:16.202Z,464.00
2023-05-02T04:45:16.227Z,462.00
2023-05-02T04:46:16.299Z,464.00
2023-05-02T04:47:16.370Z,464.00
2023-05-02T04:48:18.343Z,465.00
2023-05-02T04:49:16.416Z,462.00
2023-05-02T04:50:16.479Z,463.00
2023-05-02T04:51:17.234Z,464.00
2023-05-02T04:52:16.538Z,463.00
2023-05-02T04:53:16.563Z,463.00
2023-05-02T04:54:16.650Z,461.00
2023-05-02T04:55:16.645Z,461.00
2023-05-02T04:56:16.697Z,461.00
2023-05-02T04:57:16.730Z,460.00
2023-05-02T04:58:16.767Z,460.00
2023-05-02T04:59:16.833Z,459.00
2023-05-02T05:00:16.862Z,460.00
2023-05-02T05:01:17.029Z,460.00
2023-05-02T05:02:17.288Z,460.00
2023-05-02T05:03:17.074Z,459.00
2023-05-02T05:04:17.299Z,462.00
2023-05-02T05:05:17.099Z,460.00
2023-05-02T05:06:17.177Z,459.00
2023-05-02T05:07:17.170Z,458.00
2023-05-02T05:08:17.250Z,459.00
2023-05-02T05:09:17.276Z,460.00
2023-05-02T05:10:17.294Z,463.00
2023-05-02T05:11:17.329Z,463.00
2023-05-02T05:12:17.415Z,464.00
2023-05-02T05:13:17.454Z,464.00
2023-05-02T05:14:17.463Z,464.00
2023-05-02T05:15:17.508Z,461.00
2023-05-02T05:16:17.586Z,461.00
2023-05-02T05:17:17.634Z,459.00
2023-05-02T05:18:17.659Z,458.00
2023-05-02T05:19:17.730Z,459.00
2023-05-02T05:20:17.733Z,459.00
2023-05-02T05:21:17.781Z,461.00
2023-05-02T05:22:17.837Z,463.00
2023-05-02T05:23:17.951Z,463.00
2023-05-02T05:24:18.943Z,465.00
2023-05-02T05:25:17.999Z,466.00
2023-05-02T05:26:18.877Z,465.00
2023-05-02T05:27:18.318Z,465.00
2023-05-02T05:28:18.124Z,467.00
2023-05-02T05:29:18.531Z,467.00
2023-05-02T05:30:18.844Z,468.00
2023-05-02T05:31:18.477Z,469.00
2023-05-02T05:32:18.289Z,473.00
2023-05-02T05:33:18.564Z,472.00
2023-05-02T05:34:18.484Z,473.00
2023-05-02T05:35:18.913Z,474.00
2023-05-02T05:36:18.664Z,478.00
2023-05-02T05:37:18.892Z,547.00
2023-05-02T05:38:18.672Z,632.00
2023-05-02T05:39:18.642Z,659.00
2023-05-02T05:40:18.686Z,671.00
2023-05-02T05:41:18.692Z,679.00
2023-05-02T05:42:18.738Z,685.00
2023-05-02T05:43:18.774Z,696.00
2023-05-02T05:44:18.773Z,749.00
2023-05-02T05:45:19.320Z,734.00
2023-05-02T05:46:18.837Z,730.00
2023-05-02T05:47:18.909Z,718.00
2023-05-02T05:48:18.940Z,705.00
2023-05-02T05:49:18.882Z,700.00
2023-05-02T05:50:19.833Z,694.00
2023-05-02T05:51:19.833Z,683.00
2023-05-02T05:52:18.941Z,670.00
2023-05-02T05:53:18.929Z,660.00
2023-05-02T05:54:19.326Z,661.00
2023-05-02T05:55:19.867Z,654.00
2023-05-02T05:56:19.003Z,653.00
2023-05-02T05:57:19.319Z,658.00
2023-05-02T05:58:18.998Z,651.00
2023-05-02T05:59:19.025Z,644.00
2023-05-02T06:00:19.093Z,644.00
2023-05-02T06:01:19.024Z,641.00
2023-05-02T06:02:19.065Z,641.00
2023-05-02T06:03:19.137Z,650.00
2023-05-02T06:04:19.068Z,657.00
2023-05-02T06:05:19.031Z,653.00
2023-05-02T06:06:19.075Z,662.00
2023-05-02T06:07:19.050Z,675.00
2023-05-02T06:08:19.020Z,681.00
2023-05-02T06:09:19.028Z,680.00
2023-05-02T06:10:19.054Z,678.00
2023-05-02T06:11:19.028Z,693.00
2023-05-02T06:12:19.101Z,722.00
2023-05-02T06:13:19.082Z,738.00
2023-05-02T06:14:19.044Z,729.00
2023-05-02T06:15:19.030Z,719.00
2023-05-02T06:16:19.056Z,712.00
2023-05-02T06:17:19.011Z,701.00
2023-05-02T06:18:19.003Z,689.00
2023-05-02T06:19:19.040Z,674.00
2023-05-02T06:20:19.048Z,664.00
2023-05-02T06:21:19.077Z,652.00
2023-05-02T06:22:19.019Z,641.00
2023-05-02T06:23:19.047Z,625.00
2023-05-02T06:24:19.034Z,618.00
2023-05-02T06:25:19.057Z,609.00
2023-05-02T06:26:19.032Z,596.00
2023-05-02T06:27:19.055Z,590.00
2023-05-02T06:28:19.051Z,588.00
2023-05-02T06:29:19.026Z,591.00
2023-05-02T06:30:19.057Z,588.00
2023-05-02T06:31:19.047Z,583.00
2023-05-02T06:32:19.034Z,582.00
2023-05-02T06:33:19.069Z,582.00
2023-05-02T06:34:19.006Z,583.00
2023-05-02T06:35:19.084Z,585.00
2023-05-02T06:36:19.070Z,595.00
2023-05-02T06:37:19.370Z,631.00
2023-05-02T06:38:19.093Z,627.00
2023-05-02T06:39:19.099Z,633.00
2023-05-02T06:40:19.117Z,640.00
2023-05-02T06:41:19.133Z,647.00
2023-05-02T06:42:19.224Z,703.00
2023-05-02T06:43:19.190Z,708.00
2023-05-02T06:44:19.255Z,702.00
2023-05-02T06:45:19.280Z,717.00
2023-05-02T06:46:19.336Z,780.00
2023-05-02T06:47:19.382Z,806.00
2023-05-02T06:48:19.423Z,829.00
2023-05-02T06:49:19.433Z,871.00
2023-05-02T06:50:19.458Z,901.00
2023-05-02T06:51:19.522Z,928.00
2023-05-02T06:52:19.742Z,939.00
2023-05-02T06:53:19.599Z,967.00
2023-05-02T06:54:19.715Z,996.00
2023-05-02T06:55:19.753Z,1014.00
2023-05-02T06:56:19.792Z,1067.00
2023-05-02T06:57:19.851Z,1094.00
2023-05-02T06:58:19.914Z,1113.00
2023-05-02T06:59:19.980Z,1130.00
2023-05-02T07:00:20.042Z,1145.00
2023-05-02T07:01:20.115Z,1172.00
2023-05-02T07:02:20.135Z,1234.00
2023-05-02T07:03:20.185Z,1239.00
2023-05-02T07:04:20.305Z,1270.00
2023-05-02T07:05:20.364Z,1286.00
2023-05-02T07:06:20.391Z,1337.00
2023-05-02T07:07:20.356Z,1346.00
2023-05-02T07:08:20.452Z,1367.00
2023-05-02T07:09:20.517Z,1394.00
2023-05-02T07:10:20.487Z,1482.00
2023-05-02T07:11:20.639Z,1481.00
2023-05-02T07:12:20.596Z,1482.00
2023-05-02T07:13:20.916Z,1494.00
2023-05-02T07:14:20.666Z,1507.00
2023-05-02T07:15:20.724Z,1545.00
2023-05-02T07:16:20.822Z,1556.00
2023-05-02T07:17:20.820Z,1640.00
2023-05-02T07:18:20.911Z,1634.00
2023-05-02T07:19:20.917Z,1653.00
2023-05-02T07:20:20.990Z,1656.00
2023-05-02T07:21:21.046Z,1665.00
2023-05-02T07:22:21.087Z,1679.00
2023-05-02T07:23:21.095Z,1682.00
2023-05-02T07:24:21.274Z,1680.00
2023-05-02T07:25:21.263Z,1680.00
2023-05-02T07:26:21.203Z,1555.00
2023-05-02T07:27:21.274Z,1592.00
2023-05-02T07:28:21.296Z,1604.00
2023-05-02T07:29:21.306Z,1628.00
2023-05-02T07:30:21.395Z,1648.00
2023-05-02T07:31:21.419Z,1660.00
2023-05-02T07:32:21.694Z,1646.00
2023-05-02T07:33:21.531Z,1641.00
2023-05-02T07:34:21.585Z,1689.00
2023-05-02T07:35:21.914Z,1640.00
2023-05-02T07:36:21.509Z,1619.00
2023-05-02T07:37:21.583Z,1635.00
2023-05-02T07:38:21.533Z,1690.00
2023-05-02T07:39:21.489Z,1750.00
2023-05-02T07:40:21.894Z,1797.00
2023-05-02T07:41:21.536Z,1808.00
2023-05-02T07:42:21.487Z,1826.00
2023-05-02T07:43:21.570Z,1843.00
2023-05-02T07:44:21.456Z,1858.00
2023-05-02T07:45:21.511Z,1861.00
2023-05-02T07:46:21.635Z,1860.00
2023-05-02T07:47:21.627Z,1860.00
2023-05-02T07:48:21.624Z,1865.00
2023-05-02T07:49:21.645Z,1915.00
2023-05-02T07:50:21.680Z,1950.00
2023-05-02T07:51:21.759Z,1957.00
2023-05-02T07:52:21.757Z,1961.00
2023-05-02T07:53:21.792Z,1972.00
2023-05-02T07:54:21.831Z,1986.00
2023-05-02T07:55:22.935Z,2070.00
2023-05-02T07:56:21.915Z,2071.00
2023-05-02T07:57:22.058Z,2072.00
2023-05-02T07:58:22.028Z,2105.00
2023-05-02T07:59:22.038Z,2104.00
2023-05-02T08:00:22.063Z,2115.00
2023-05-02T08:01:22.113Z,2123.00
2023-05-02T08:02:22.234Z,2140.00
2023-05-02T08:03:22.359Z,2142.00
2023-05-02T08:04:22.282Z,2155.00
2023-05-02T08:05:22.283Z,2163.00
2023-05-02T08:06:22.311Z,2192.00
2023-05-02T08:07:22.312Z,2180.00
2023-05-02T08:08:22.361Z,2172.00
2023-05-02T08:09:22.391Z,2173.00
2023-05-02T08:10:22.418Z,2153.00
2023-05-02T08:11:23.355Z,2054.00
2023-05-02T08:12:22.508Z,1996.00
2023-05-02T08:13:22.560Z,1984.00
2023-05-02T08:14:22.612Z,1950.00
2023-05-02T08:15:22.879Z,1880.00
2023-05-02T08:16:22.815Z,1859.00
2023-05-02T08:17:22.752Z,1821.00
2023-05-02T08:18:22.755Z,1810.00
2023-05-02T08:19:22.813Z,1801.00
2023-05-02T08:20:22.952Z,1789.00
2023-05-02T08:21:22.927Z,1771.00
2023-05-02T08:22:22.972Z,1699.00
2023-05-02T08:23:23.000Z,1648.00
2023-05-02T08:24:23.034Z,1516.00
2023-05-02T08:25:23.090Z,1527.00
2023-05-02T08:26:23.123Z,1532.00
2023-05-02T08:27:23.168Z,1535.00
2023-05-02T08:28:23.405Z,1528.00
2023-05-02T08:29:23.282Z,1524.00
2023-05-02T08:30:23.438Z,1521.00
2023-05-02T08:31:23.459Z,1518.00
2023-05-02T08:32:23.452Z,1513.00
2023-05-02T08:33:23.564Z,1507.00
2023-05-02T08:34:23.559Z,1499.00
2023-05-02T08:35:23.602Z,1497.00
2023-05-02T08:36:23.663Z,1496.00
2023-05-02T08:37:23.728Z,1493.00
2023-05-02T08:38:23.889Z,1490.00
2023-05-02T08:39:24.371Z,1488.00
2023-05-02T08:40:37.767Z,1497.00
2023-05-02T08:41:24.921Z,1499.00
2023-05-02T08:42:24.912Z,1507.00
2023-05-02T08:43:23.914Z,1529.00
2023-05-02T08:44:23.880Z,1600.00
2023-05-02T08:45:23.873Z,1701.00
2023-05-02T08:46:24.023Z,1585.00
2023-05-02T08:47:23.983Z,1615.00
2023-05-02T08:48:23.855Z,1575.00
2023-05-02T08:49:23.879Z,1485.00
2023-05-02T08:50:23.924Z,1463.00
2023-05-02T08:51:24.070Z,1425.00
2023-05-02T08:52:23.966Z,1375.00
2023-05-02T08:53:24.014Z,1314.00
2023-05-02T08:54:24.052Z,1242.00
2023-05-02T08:55:24.027Z,1250.00
2023-05-02T08:56:24.016Z,1249.00
2023-05-02T08:57:24.098Z,1176.00
2023-05-02T08:58:24.035Z,1174.00
2023-05-02T08:59:24.039Z,1164.00
2023-05-02T09:00:24.010Z,1104.00
2023-05-02T09:01:24.050Z,1122.00
2023-05-02T09:02:24.952Z,1122.00
2023-05-02T09:03:24.059Z,1058.00
2023-05-02T09:04:24.038Z,963.00
2023-05-02T09:05:24.013Z,990.00
2023-05-02T09:06:24.055Z,1014.00
2023-05-02T09:07:24.033Z,1026.00
2023-05-02T09:08:24.023Z,1026.00
2023-05-02T09:09:24.014Z,967.00
2023-05-02T09:10:24.016Z,976.00
2023-05-02T09:11:24.023Z,900.00
2023-05-02T09:12:24.014Z,892.00
2023-05-02T09:13:24.194Z,900.00
2023-05-02T09:14:24.069Z,855.00
2023-05-02T09:15:24.035Z,864.00
2023-05-02T09:16:24.157Z,900.00
2023-05-02T09:17:24.059Z,871.00
2023-05-02T09:18:24.059Z,856.00
2023-05-02T09:19:24.055Z,844.00
2023-05-02T09:20:24.081Z,840.00
2023-05-02T09:21:24.084Z,818.00
2023-05-02T09:22:24.111Z,819.00
2023-05-02T09:23:24.103Z,812.00
2023-05-02T09:24:24.138Z,811.00
2023-05-02T09:25:24.139Z,807.00
2023-05-02T09:26:24.256Z,776.00
2023-05-02T09:27:24.176Z,800.00
2023-05-02T09:28:24.169Z,756.00
2023-05-02T09:29:24.225Z,735.00
2023-05-02T09:30:24.275Z,720.00
2023-05-02T09:31:43.292Z,731.00
2023-05-02T09:32:25.240Z,781.00
2023-05-02T09:33:24.229Z,836.00
2023-05-02T09:34:24.951Z,880.00
2023-05-02T09:35:24.267Z,901.00
2023-05-02T09:36:24.219Z,966.00
2023-05-02T09:37:24.200Z,1026.00
2023-05-02T09:38:24.453Z,1067.00
2023-05-02T09:39:25.894Z,1086.00
2023-05-02T09:40:24.164Z,1105.00
2023-05-02T09:41:24.413Z,1123.00
2023-05-02T09:42:24.200Z,1130.00
2023-05-02T09:43:24.426Z,1146.00
2023-05-02T09:44:24.152Z,1159.00
2023-05-02T09:45:24.515Z,1166.00
2023-05-02T09:46:24.315Z,1172.00
2023-05-02T09:47:24.324Z,1182.00
2023-05-02T09:48:24.348Z,1183.00
2023-05-02T09:49:24.457Z,1177.00
2023-05-02T09:50:24.568Z,1171.00
2023-05-02T09:51:24.553Z,1157.00
2023-05-02T09:52:24.558Z,1143.00
2023-05-02T09:53:24.617Z,1114.00
2023-05-02T09:54:24.729Z,1099.00
2023-05-02T09:55:24.792Z,1097.00
2023-05-02T09:56:26.137Z,1111.00
2023-05-02T09:57:24.822Z,1123.00
2023-05-02T09:58:24.886Z,1136.00
2023-05-02T09:59:24.925Z,1151.00
2023-05-02T10:00:24.986Z,1161.00
2023-05-02T10:01:25.076Z,1175.00
2023-05-02T10:02:25.093Z,1186.00
2023-05-02T10:03:25.100Z,1232.00
2023-05-02T10:04:25.194Z,1230.00
2023-05-02T10:05:25.198Z,1239.00
2023-05-02T10:06:25.258Z,1249.00
2023-05-02T10:07:25.270Z,1257.00
2023-05-02T10:08:25.303Z,1273.00
2023-05-02T10:09:25.328Z,1283.00
2023-05-02T10:10:25.376Z,1293.00
2023-05-02T10:11:25.489Z,1301.00
2023-05-02T10:12:25.449Z,1315.00
2023-05-02T10:13:25.484Z,1324.00
2023-05-02T10:14:27.098Z,1330.00
2023-05-02T10:15:25.530Z,1340.00
2023-05-02T10:16:25.590Z,1336.00
2023-05-02T10:17:25.542Z,1345.00
2023-05-02T10:18:25.519Z,1274.00
2023-05-02T10:19:25.471Z,1081.00
2023-05-02T10:20:26.896Z,1212.00
2023-05-02T10:21:25.538Z,1194.00
2023-05-02T10:22:25.447Z,1184.00
2023-05-02T10:23:25.464Z,1156.00
2023-05-02T10:24:25.441Z,1116.00
2023-05-02T10:25:25.452Z,1092.00
2023-05-02T10:26:25.954Z,1063.00
2023-05-02T10:27:25.542Z,1052.00
2023-05-02T10:28:25.957Z,1039.00
2023-05-02T10:29:25.424Z,1042.00
2023-05-02T10:30:25.413Z,1075.00
2023-05-02T10:31:25.569Z,1101.00
2023-05-02T10:32:25.433Z,1116.00
2023-05-02T10:33:25.380Z,1117.00
2023-05-02T10:34:25.446Z,1071.00
2023-05-02T10:35:25.363Z,990.00
2023-05-02T10:36:25.362Z,995.00
2023-05-02T10:37:25.348Z,996.00
2023-05-02T10:38:25.405Z,989.00
2023-05-02T10:39:25.341Z,978.00
2023-05-02T10:40:25.395Z,966.00
2023-05-02T10:41:25.476Z,946.00
2023-05-02T10:42:25.498Z,927.00
2023-05-02T10:43:25.589Z,901.00
2023-05-02T10:44:26.711Z,892.00
2023-05-02T10:45:25.695Z,884.00
2023-05-02T10:46:25.781Z,879.00
2023-05-02T10:47:25.825Z,871.00
2023-05-02T10:48:25.947Z,853.00
2023-05-02T10:49:26.057Z,848.00
2023-05-02T10:50:26.531Z,835.00
2023-05-02T10:51:26.113Z,827.00
2023-05-02T10:52:26.102Z,823.00
2023-05-02T10:53:26.116Z,817.00
2023-05-02T10:54:26.201Z,805.00
2023-05-02T10:55:26.220Z,795.00
2023-05-02T10:56:28.442Z,786.00
2023-05-02T10:57:26.221Z,770.00
2023-05-02T10:58:26.260Z,754.00
2023-05-02T10:59:26.204Z,747.00
2023-05-02T11:00:26.232Z,740.00
2023-05-02T11:01:26.299Z,729.00
2023-05-02T11:02:26.301Z,721.00
2023-05-02T11:03:26.239Z,713.00
2023-05-02T11:04:26.189Z,704.00
2023-05-02T11:05:26.186Z,704.00
2023-05-02T11:06:26.209Z,697.00
2023-05-02T11:07:26.176Z,693.00
2023-05-02T11:08:26.199Z,686.00
2023-05-02T11:09:26.161Z,681.00
2023-05-02T11:10:26.160Z,675.00
2023-05-02T11:11:26.130Z,665.00
2023-05-02T11:12:26.947Z,660.00
2023-05-02T11:13:26.126Z,653.00
2023-05-02T11:14:26.189Z,645.00
2023-05-02T11:15:26.123Z,640.00
2023-05-02T11:16:26.483Z,636.00
2023-05-02T11:17:26.122Z,631.00
2023-05-02T11:18:26.107Z,627.00
2023-05-02T11:19:26.147Z,624.00
2023-05-02T11:20:26.059Z,635.00
2023-05-02T11:21:26.105Z,752.00
2023-05-02T11:22:26.052Z,790.00
2023-05-02T11:23:26.240Z,781.00
2023-05-02T11:24:26.042Z,776.00
2023-05-02T11:25:26.056Z,774.00
2023-05-02T11:26:26.014Z,771.00
2023-05-02T11:27:26.011Z,766.00
2023-05-02T11:28:25.991Z,763.00
2023-05-02T11:29:26.029Z,751.00
2023-05-02T11:30:25.986Z,740.00
2023-05-02T11:31:26.054Z,731.00
2023-05-02T11:32:26.160Z,723.00
2023-05-02T11:33:25.959Z,714.00
2023-05-02T11:34:25.960Z,703.00
2023-05-02T11:35:25.950Z,693.00
2023-05-02T11:36:25.951Z,686.00
2023-05-02T11:37:25.921Z,681.00
2023-05-02T11:38:25.928Z,677.00
2023-05-02T11:39:25.934Z,669.00
2023-05-02T11:40:25.895Z,665.00
2023-05-02T11:41:25.917Z,662.00
2023-05-02T11:42:25.897Z,659.00
2023-05-02T11:43:25.932Z,659.00
2023-05-02T11:44:25.907Z,657.00
2023-05-02T11:45:25.875Z,653.00
2023-05-02T11:46:25.989Z,650.00
2023-05-02T11:47:25.954Z,645.00
2023-05-02T11:48:25.969Z,646.00
2023-05-02T11:49:25.856Z,646.00
2023-05-02T11:50:25.856Z,641.00
2023-05-02T11:51:25.890Z,635.00
2023-05-02T11:52:25.825Z,633.00
2023-05-02T11:53:25.839Z,637.00
2023-05-02T11:54:25.810Z,639.00
2023-05-02T11:55:25.809Z,638.00
2023-05-02T11:56:25.811Z,633.00
2023-05-02T11:57:25.773Z,618.00
2023-05-02T11:58:25.794Z,613.00
2023-05-02T11:59:26.471Z,613.00
2023-05-02T12:00:25.764Z,607.00
2023-05-02T12:01:25.764Z,602.00
2023-05-02T12:02:25.851Z,599.00
2023-05-02T12:03:26.098Z,596.00
2023-05-02T12:04:25.868Z,596.00
2023-05-02T12:05:25.797Z,597.00
2023-05-02T12:06:25.762Z,600.00
2023-05-02T12:07:25.717Z,600.00
2023-05-02T12:08:25.960Z,599.00
2023-05-02T12:09:25.721Z,601.00
2023-05-02T12:10:25.706Z,596.00
2023-05-02T12:11:25.679Z,588.00
2023-05-02T12:12:25.702Z,591.00
2023-05-02T12:13:25.697Z,588.00
2023-05-02T12:14:25.668Z,581.00
2023-05-02T12:15:25.682Z,575.00
2023-05-02T12:16:25.702Z,576.00
2023-05-02T12:17:25.664Z,578.00
2023-05-02T12:18:25.964Z,576.00
2023-05-02T12:19:25.662Z,571.00
2023-05-02T12:20:25.694Z,571.00
2023-05-02T12:21:25.654Z,568.00
2023-05-02T12:22:25.617Z,566.00